Terminal Aerodrome Forecast
Issued by NWS Wilmington, OH

Current Version | Previous Version | Graphics & Text | Print | Product List | Glossary On
Versions: 1 2 3 4 5 6 7 8 9 10 11 12 13 14 15 16 17 18 19 20 21 22 23 24
641
FTUS41 KILN 211601 AAA
TAFCVG
TAF AMD
KCVG 211601Z 2116/2218 34014KT 5SM -SHRA BR BKN008 OVC050
     FM212100 01014KT P6SM OVC008
     FM220200 04015KT 2SM -RA BR OVC006
     FM221400 06012KT 5SM BR OVC008=

USA.gov is the U.S. government's official web portal to all federal, state and local government web resources and services.